sensor_id;sensor_type;location;lat;lon;timestamp;P1;durP1;ratioP1;P2;durP2;ratioP2
3613;SDS011;1821;50.936;6.854;2023-07-20T00:00:08;6.35;;;3.05;;
3613;SDS011;1821;50.936;6.854;2023-07-20T00:00:51;5.25;;;3.00;;
3613;SDS011;1821;50.936;6.854;2023-07-20T00:01:34;5.15;;;3.40;;
3613;SDS011;1821;50.936;6.854;2023-07-20T00:02:16;5.03;;;2.88;;
3613;SDS011;1821;50.936;6.854;2023-07-20T00:03:10;3.75;;;3.00;;
3613;SDS011;1821;50.936;6.854;2023-07-20T00:04:00;4.80;;;3.15;;
3613;SDS011;1821;50.936;6.854;2023-07-20T00:04:42;6.10;;;3.10;;
3613;SDS011;1821;50.936;6.854;2023-07-20T00:05:24;4.90;;;2.85;;
3613;SDS011;1821;50.936;6.854;2023-07-20T00:06:06;6.63;;;3.00;;
3613;SDS011;1821;50.936;6.854;2023-07-20T00:06:48;5.20;;;2.65;;
3613;SDS011;1821;50.936;6.854;2023-07-20T00:07:30;5.53;;;2.40;;
3613;SDS011;1821;50.936;6.854;2023-07-20T00:08:15;4.30;;;2.70;;
3613;SDS011;1821;50.936;6.854;2023-07-20T00:08:59;4.88;;;3.00;;
3613;SDS011;1821;50.936;6.854;2023-07-20T00:09:41;6.55;;;3.03;;
3613;SDS011;1821;50.936;6.854;2023-07-20T00:10:23;3.85;;;2.80;;
3613;SDS011;1821;50.936;6.854;2023-07-20T00:11:05;4.45;;;2.67;;
3613;SDS011;1821;50.936;6.854;2023-07-20T00:11:50;4.82;;;2.80;;
3613;SDS011;1821;50.936;6.854;2023-07-20T00:12:35;5.03;;;2.95;;
3613;SDS011;1821;50.936;6.854;2023-07-20T00:13:17;5.55;;;3.40;;
3613;SDS011;1821;50.936;6.854;2023-07-20T00:14:00;4.22;;;3.10;;
3613;SDS011;1821;50.936;6.854;2023-07-20T00:14:42;4.38;;;2.80;;
3613;SDS011;1821;50.936;6.854;2023-07-20T00:15:26;5.20;;;2.80;;
3613;SDS011;1821;50.936;6.854;2023-07-20T00:16:09;5.65;;;2.90;;
3613;SDS011;1821;50.936;6.854;2023-07-20T00:16:51;4.10;;;2.80;;
3613;SDS011;1821;50.936;6.854;2023-07-20T00:17:37;5.20;;;3.10;;
3613;SDS011;1821;50.936;6.854;2023-07-20T00:18:21;6.25;;;3.00;;
3613;SDS011;1821;50.936;6.854;2023-07-20T00:19:03;6.90;;;2.83;;
3613;SDS011;1821;50.936;6.854;2023-07-20T00:19:46;5.17;;;3.10;;
3613;SDS011;1821;50.936;6.854;2023-07-20T00:20:28;3.50;;;2.70;;
3613;SDS011;1821;50.936;6.854;2023-07-20T00:21:09;4.65;;;2.63;;
3613;SDS011;1821;50.936;6.854;2023-07-20T00:21:52;5.68;;;2.88;;
3613;SDS011;1821;50.936;6.854;2023-07-20T00:22:35;4.47;;;2.80;;
3613;SDS011;1821;50.936;6.854;2023-07-20T00:23:17;6.55;;;3.10;;
3613;SDS011;1821;50.936;6.854;2023-07-20T00:24:03;9.15;;;3.10;;
3613;SDS011;1821;50.936;6.854;2023-07-20T00:24:45;6.00;;;2.50;;
3613;SDS011;1821;50.936;6.854;2023-07-20T00:25:27;5.38;;;3.08;;
3613;SDS011;1821;50.936;6.854;2023-07-20T00:26:12;6.47;;;3.33;;
3613;SDS011;1821;50.936;6.854;2023-07-20T00:26:54;4.97;;;2.97;;
3613;SDS011;1821;50.936;6.854;2023-07-20T00:27:36;5.85;;;3.10;;
3613;SDS011;1821;50.936;6.854;2023-07-20T00:28:19;6.78;;;3.20;;
3613;SDS011;1821;50.936;6.854;2023-07-20T00:29:01;8.30;;;3.25;;
3613;SDS011;1821;50.936;6.854;2023-07-20T00:29:43;5.00;;;2.90;;
3613;SDS011;1821;50.936;6.854;2023-07-20T00:30:24;4.60;;;3.10;;
3613;SDS011;1821;50.936;6.854;2023-07-20T00:31:06;5.40;;;3.53;;
3613;SDS011;1821;50.936;6.854;2023-07-20T00:31:48;4.40;;;3.10;;
3613;SDS011;1821;50.936;6.854;2023-07-20T00:32:32;4.82;;;2.80;;
3613;SDS011;1821;50.936;6.854;2023-07-20T00:33:16;4.72;;;2.90;;
3613;SDS011;1821;50.936;6.854;2023-07-20T00:33:59;6.35;;;3.50;;
3613;SDS011;1821;50.936;6.854;2023-07-20T00:34:41;7.97;;;3.30;;
3613;SDS011;1821;50.936;6.854;2023-07-20T00:35:23;7.40;;;3.33;;
3613;SDS011;1821;50.936;6.854;2023-07-20T00:36:05;7.20;;;3.75;;
3613;SDS011;1821;50.936;6.854;2023-07-20T00:36:47;5.32;;;3.30;;
3613;SDS011;1821;50.936;6.854;2023-07-20T00:37:31;5.05;;;3.70;;
3613;SDS011;1821;50.936;6.854;2023-07-20T00:38:12;5.85;;;3.75;;
3613;SDS011;1821;50.936;6.854;2023-07-20T00:38:55;4.45;;;3.17;;
3613;SDS011;1821;50.936;6.854;2023-07-20T00:39:37;6.80;;;3.30;;
3613;SDS011;1821;50.936;6.854;2023-07-20T00:40:19;6.53;;;3.28;;
3613;SDS011;1821;50.936;6.854;2023-07-20T00:41:01;6.63;;;3.30;;
3613;SDS011;1821;50.936;6.854;2023-07-20T00:41:43;8.07;;;3.17;;
3613;SDS011;1821;50.936;6.854;2023-07-20T00:42:25;6.10;;;3.50;;
3613;SDS011;1821;50.936;6.854;2023-07-20T00:43:08;6.40;;;3.35;;
3613;SDS011;1821;50.936;6.854;2023-07-20T00:43:51;7.38;;;3.10;;
3613;SDS011;1821;50.936;6.854;2023-07-20T00:44:33;8.45;;;3.00;;
3613;SDS011;1821;50.936;6.854;2023-07-20T00:45:16;6.38;;;3.00;;
3613;SDS011;1821;50.936;6.854;2023-07-20T00:45:58;6.72;;;3.45;;
3613;SDS011;1821;50.936;6.854;2023-07-20T00:46:41;4.80;;;3.33;;
3613;SDS011;1821;50.936;6.854;2023-07-20T00:47:24;4.60;;;3.40;;
3613;SDS011;1821;50.936;6.854;2023-07-20T00:48:06;5.82;;;3.30;;
3613;SDS011;1821;50.936;6.854;2023-07-20T00:48:49;8.32;;;3.28;;
3613;SDS011;1821;50.936;6.854;2023-07-20T00:49:31;7.82;;;3.50;;
3613;SDS011;1821;50.936;6.854;2023-07-20T00:50:13;8.45;;;3.60;;
3613;SDS011;1821;50.936;6.854;2023-07-20T00:50:55;7.65;;;3.80;;
3613;SDS011;1821;50.936;6.854;2023-07-20T00:51:38;5.93;;;3.53;;
3613;SDS011;1821;50.936;6.854;2023-07-20T00:52:23;5.78;;;3.60;;
3613;SDS011;1821;50.936;6.854;2023-07-20T00:53:06;6.18;;;3.30;;
3613;SDS011;1821;50.936;6.854;2023-07-20T00:53:49;7.13;;;3.30;;
3613;SDS011;1821;50.936;6.854;2023-07-20T00:54:31;7.63;;;3.47;;
3613;SDS011;1821;50.936;6.854;2023-07-20T00:55:13;6.70;;;3.40;;
3613;SDS011;1821;50.936;6.854;2023-07-20T00:55:55;6.53;;;3.30;;
3613;SDS011;1821;50.936;6.854;2023-07-20T00:56:37;6.35;;;3.45;;
3613;SDS011;1821;50.936;6.854;2023-07-20T00:57:20;6.03;;;3.90;;
3613;SDS011;1821;50.936;6.854;2023-07-20T00:58:02;5.38;;;3.47;;
3613;SDS011;1821;50.936;6.854;2023-07-20T00:58:45;7.72;;;3.65;;
3613;SDS011;1821;50.936;6.854;2023-07-20T00:59:27;9.98;;;4.07;;
3613;SDS011;1821;50.936;6.854;2023-07-20T01:00:12;5.85;;;3.60;;
3613;SDS011;1821;50.936;6.854;2023-07-20T01:00:54;5.68;;;3.60;;
3613;SDS011;1821;50.936;6.854;2023-07-20T01:01:36;7.13;;;3.63;;
3613;SDS011;1821;50.936;6.854;2023-07-20T01:02:18;5.50;;;3.60;;
3613;SDS011;1821;50.936;6.854;2023-07-20T01:03:00;7.63;;;3.40;;
3613;SDS011;1821;50.936;6.854;2023-07-20T01:03:44;6.55;;;3.10;;
3613;SDS011;1821;50.936;6.854;2023-07-20T01:04:26;7.95;;;3.90;;
3613;SDS011;1821;50.936;6.854;2023-07-20T01:05:09;5.93;;;3.63;;
3613;SDS011;1821;50.936;6.854;2023-07-20T01:08:03;5.70;;;3.50;;
3613;SDS011;1821;50.936;6.854;2023-07-20T01:09:00;5.55;;;3.40;;
3613;SDS011;1821;50.936;6.854;2023-07-20T01:09:52;5.70;;;3.30;;
3613;SDS011;1821;50.936;6.854;2023-07-20T01:11:01;6.07;;;3.17;;
3613;SDS011;1821;50.936;6.854;2023-07-20T01:11:59;6.18;;;3.25;;
3613;SDS011;1821;50.936;6.854;2023-07-20T01:12:52;5.50;;;3.20;;
3613;SDS011;1821;50.936;6.854;2023-07-20T01:13:36;4.13;;;2.92;;
3613;SDS011;1821;50.936;6.854;2023-07-20T01:14:19;7.50;;;3.40;;
3613;SDS011;1821;50.936;6.854;2023-07-20T01:15:01;6.55;;;3.30;;
3613;SDS011;1821;50.936;6.854;2023-07-20T01:15:48;5.40;;;3.78;;
3613;SDS011;1821;50.936;6.854;2023-07-20T01:16:42;5.53;;;3.10;;
3613;SDS011;1821;50.936;6.854;2023-07-20T01:17:24;6.90;;;3.30;;
3613;SDS011;1821;50.936;6.854;2023-07-20T01:18:06;7.43;;;3.45;;
3613;SDS011;1821;50.936;6.854;2023-07-20T01:18:50;6.57;;;3.38;;
3613;SDS011;1821;50.936;6.854;2023-07-20T01:19:32;5.22;;;3.00;;
3613;SDS011;1821;50.936;6.854;2023-07-20T01:20:15;4.50;;;2.90;;
3613;SDS011;1821;50.936;6.854;2023-07-20T01:20:59;5.82;;;3.70;;
3613;SDS011;1821;50.936;6.854;2023-07-20T01:24:00;6.22;;;3.70;;
3613;SDS011;1821;50.936;6.854;2023-07-20T01:26:20;4.63;;;2.92;;
3613;SDS011;1821;50.936;6.854;2023-07-20T01:31:20;5.45;;;3.30;;
3613;SDS011;1821;50.936;6.854;2023-07-20T01:32:03;5.40;;;3.10;;
3613;SDS011;1821;50.936;6.854;2023-07-20T01:32:48;5.07;;;3.08;;
3613;SDS011;1821;50.936;6.854;2023-07-20T01:33:31;7.65;;;3.30;;
3613;SDS011;1821;50.936;6.854;2023-07-20T01:34:15;5.32;;;3.15;;
3613;SDS011;1821;50.936;6.854;2023-07-20T01:35:00;5.55;;;3.15;;
3613;SDS011;1821;50.936;6.854;2023-07-20T01:35:44;5.45;;;3.10;;
3613;SDS011;1821;50.936;6.854;2023-07-20T01:36:37;5.78;;;3.20;;
3613;SDS011;1821;50.936;6.854;2023-07-20T01:37:19;5.25;;;3.30;;
3613;SDS011;1821;50.936;6.854;2023-07-20T01:38:06;4.95;;;3.30;;
3613;SDS011;1821;50.936;6.854;2023-07-20T01:38:49;4.10;;;2.90;;
3613;SDS011;1821;50.936;6.854;2023-07-20T01:39:32;5.20;;;3.03;;
3613;SDS011;1821;50.936;6.854;2023-07-20T01:40:16;7.00;;;3.20;;
3613;SDS011;1821;50.936;6.854;2023-07-20T01:40:58;4.90;;;3.00;;
3613;SDS011;1821;50.936;6.854;2023-07-20T01:41:40;4.32;;;3.05;;
3613;SDS011;1821;50.936;6.854;2023-07-20T01:42:22;5.53;;;3.90;;
3613;SDS011;1821;50.936;6.854;2023-07-20T01:43:05;4.88;;;3.70;;
3613;SDS011;1821;50.936;6.854;2023-07-20T01:43:47;4.40;;;3.40;;
3613;SDS011;1821;50.936;6.854;2023-07-20T01:44:29;6.07;;;3.30;;
3613;SDS011;1821;50.936;6.854;2023-07-20T01:45:11;5.28;;;3.20;;
3613;SDS011;1821;50.936;6.854;2023-07-20T01:45:55;5.47;;;3.30;;
3613;SDS011;1821;50.936;6.854;2023-07-20T01:46:37;5.90;;;3.10;;
3613;SDS011;1821;50.936;6.854;2023-07-20T01:47:19;4.82;;;2.90;;
3613;SDS011;1821;50.936;6.854;2023-07-20T01:48:01;5.53;;;3.20;;
3613;SDS011;1821;50.936;6.854;2023-07-20T01:48:43;6.15;;;3.20;;
3613;SDS011;1821;50.936;6.854;2023-07-20T01:49:25;5.18;;;3.03;;
3613;SDS011;1821;50.936;6.854;2023-07-20T01:50:07;4.35;;;3.10;;
3613;SDS011;1821;50.936;6.854;2023-07-20T01:50:50;4.20;;;2.90;;
3613;SDS011;1821;50.936;6.854;2023-07-20T01:51:32;4.88;;;3.10;;
3613;SDS011;1821;50.936;6.854;2023-07-20T01:52:13;7.10;;;3.25;;
3613;SDS011;1821;50.936;6.854;2023-07-20T01:52:56;7.95;;;3.33;;
3613;SDS011;1821;50.936;6.854;2023-07-20T01:53:40;6.20;;;3.00;;
3613;SDS011;1821;50.936;6.854;2023-07-20T01:54:22;5.65;;;2.97;;
3613;SDS011;1821;50.936;6.854;2023-07-20T01:55:04;5.30;;;3.20;;
3613;SDS011;1821;50.936;6.854;2023-07-20T01:55:47;4.68;;;3.10;;
3613;SDS011;1821;50.936;6.854;2023-07-20T01:56:29;4.13;;;2.78;;
3613;SDS011;1821;50.936;6.854;2023-07-20T01:57:11;5.03;;;3.03;;
3613;SDS011;1821;50.936;6.854;2023-07-20T01:57:55;4.07;;;3.00;;
3613;SDS011;1821;50.936;6.854;2023-07-20T01:58:38;4.43;;;3.17;;
3613;SDS011;1821;50.936;6.854;2023-07-20T01:59:20;5.40;;;3.20;;
3613;SDS011;1821;50.936;6.854;2023-07-20T02:00:02;4.25;;;3.20;;
3613;SDS011;1821;50.936;6.854;2023-07-20T02:00:44;5.03;;;3.28;;
3613;SDS011;1821;50.936;6.854;2023-07-20T02:01:26;6.88;;;3.60;;
3613;SDS011;1821;50.936;6.854;2023-07-20T02:02:10;6.15;;;3.20;;
3613;SDS011;1821;50.936;6.854;2023-07-20T02:02:54;4.40;;;3.22;;
3613;SDS011;1821;50.936;6.854;2023-07-20T02:03:36;5.63;;;3.33;;
3613;SDS011;1821;50.936;6.854;2023-07-20T02:04:20;5.53;;;3.50;;
3613;SDS011;1821;50.936;6.854;2023-07-20T02:05:04;4.63;;;3.08;;
3613;SDS011;1821;50.936;6.854;2023-07-20T02:05:46;5.32;;;2.92;;
3613;SDS011;1821;50.936;6.854;2023-07-20T02:06:28;5.47;;;3.10;;
3613;SDS011;1821;50.936;6.854;2023-07-20T02:07:10;5.63;;;3.30;;
3613;SDS011;1821;50.936;6.854;2023-07-20T02:07:52;5.30;;;3.22;;
3613;SDS011;1821;50.936;6.854;2023-07-20T02:08:34;4.80;;;3.00;;
3613;SDS011;1821;50.936;6.854;2023-07-20T02:09:17;4.25;;;2.60;;
3613;SDS011;1821;50.936;6.854;2023-07-20T02:09:59;5.28;;;3.03;;
3613;SDS011;1821;50.936;6.854;2023-07-20T02:10:40;5.60;;;2.90;;
3613;SDS011;1821;50.936;6.854;2023-07-20T02:11:25;4.82;;;3.10;;
3613;SDS011;1821;50.936;6.854;2023-07-20T02:12:07;6.10;;;3.78;;
3613;SDS011;1821;50.936;6.854;2023-07-20T02:12:49;6.90;;;3.35;;
3613;SDS011;1821;50.936;6.854;2023-07-20T02:13:31;3.88;;;2.65;;
3613;SDS011;1821;50.936;6.854;2023-07-20T02:14:15;6.63;;;3.55;;
3613;SDS011;1821;50.936;6.854;2023-07-20T02:14:57;5.75;;;3.50;;
3613;SDS011;1821;50.936;6.854;2023-07-20T02:15:39;7.10;;;3.83;;
3613;SDS011;1821;50.936;6.854;2023-07-20T02:16:22;5.40;;;3.22;;
3613;SDS011;1821;50.936;6.854;2023-07-20T02:17:05;8.15;;;3.58;;
3613;SDS011;1821;50.936;6.854;2023-07-20T02:17:46;7.43;;;3.88;;
3613;SDS011;1821;50.936;6.854;2023-07-20T02:18:28;5.95;;;3.70;;
3613;SDS011;1821;50.936;6.854;2023-07-20T02:19:10;4.70;;;3.20;;
3613;SDS011;1821;50.936;6.854;2023-07-20T02:19:52;5.47;;;3.28;;
3613;SDS011;1821;50.936;6.854;2023-07-20T02:20:36;8.13;;;3.38;;
3613;SDS011;1821;50.936;6.854;2023-07-20T02:21:18;7.88;;;3.38;;
3613;SDS011;1821;50.936;6.854;2023-07-20T02:21:59;7.28;;;3.20;;
3613;SDS011;1821;50.936;6.854;2023-07-20T02:22:41;6.25;;;3.40;;
3613;SDS011;1821;50.936;6.854;2023-07-20T02:23:25;6.20;;;3.20;;
3613;SDS011;1821;50.936;6.854;2023-07-20T02:24:07;4.78;;;3.13;;
3613;SDS011;1821;50.936;6.854;2023-07-20T02:24:49;4.25;;;3.00;;
3613;SDS011;1821;50.936;6.854;2023-07-20T02:25:31;5.80;;;3.08;;
3613;SDS011;1821;50.936;6.854;2023-07-20T02:26:15;6.55;;;3.08;;
3613;SDS011;1821;50.936;6.854;2023-07-20T02:26:57;7.43;;;3.20;;
3613;SDS011;1821;50.936;6.854;2023-07-20T02:27:39;5.18;;;3.33;;
3613;SDS011;1821;50.936;6.854;2023-07-20T02:28:22;5.75;;;3.80;;
3613;SDS011;1821;50.936;6.854;2023-07-20T02:29:04;5.20;;;3.15;;
3613;SDS011;1821;50.936;6.854;2023-07-20T02:29:46;4.75;;;3.13;;
3613;SDS011;1821;50.936;6.854;2023-07-20T02:30:28;4.25;;;3.30;;
3613;SDS011;1821;50.936;6.854;2023-07-20T02:31:13;6.53;;;3.70;;
3613;SDS011;1821;50.936;6.854;2023-07-20T02:31:54;6.60;;;3.90;;
3613;SDS011;1821;50.936;6.854;2023-07-20T02:32:36;5.55;;;3.75;;
3613;SDS011;1821;50.936;6.854;2023-07-20T02:33:18;6.40;;;3.80;;
3613;SDS011;1821;50.936;6.854;2023-07-20T02:34:01;5.15;;;3.42;;
3613;SDS011;1821;50.936;6.854;2023-07-20T02:34:43;6.05;;;3.60;;
3613;SDS011;1821;50.936;6.854;2023-07-20T02:35:28;7.25;;;3.63;;
3613;SDS011;1821;50.936;6.854;2023-07-20T02:36:09;4.40;;;3.38;;
3613;SDS011;1821;50.936;6.854;2023-07-20T02:36:51;4.90;;;3.63;;
3613;SDS011;1821;50.936;6.854;2023-07-20T02:37:35;8.35;;;4.10;;
3613;SDS011;1821;50.936;6.854;2023-07-20T02:38:18;7.45;;;3.80;;
3613;SDS011;1821;50.936;6.854;2023-07-20T02:39:00;7.72;;;3.70;;
3613;SDS011;1821;50.936;6.854;2023-07-20T02:39:45;5.78;;;3.67;;
3613;SDS011;1821;50.936;6.854;2023-07-20T02:40:26;5.70;;;3.70;;
3613;SDS011;1821;50.936;6.854;2023-07-20T02:41:09;5.45;;;3.45;;
3613;SDS011;1821;50.936;6.854;2023-07-20T02:41:51;4.90;;;3.22;;
3613;SDS011;1821;50.936;6.854;2023-07-20T02:42:32;5.50;;;3.30;;
3613;SDS011;1821;50.936;6.854;2023-07-20T02:43:15;4.97;;;3.47;;
3613;SDS011;1821;50.936;6.854;2023-07-20T02:43:57;5.10;;;3.30;;
3613;SDS011;1821;50.936;6.854;2023-07-20T02:44:39;5.28;;;3.63;;
3613;SDS011;1821;50.936;6.854;2023-07-20T02:45:21;6.95;;;3.83;;
3613;SDS011;1821;50.936;6.854;2023-07-20T02:46:02;7.00;;;3.80;;
3613;SDS011;1821;50.936;6.854;2023-07-20T02:46:44;6.60;;;3.85;;
3613;SDS011;1821;50.936;6.854;2023-07-20T02:47:27;6.30;;;3.85;;
3613;SDS011;1821;50.936;6.854;2023-07-20T02:48:08;6.40;;;3.90;;
3613;SDS011;1821;50.936;6.854;2023-07-20T02:48:50;7.07;;;4.10;;
3613;SDS011;1821;50.936;6.854;2023-07-20T02:49:33;6.78;;;4.28;;
3613;SDS011;1821;50.936;6.854;2023-07-20T02:50:15;5.30;;;3.65;;
3613;SDS011;1821;50.936;6.854;2023-07-20T02:50:57;4.80;;;3.53;;
3613;SDS011;1821;50.936;6.854;2023-07-20T02:51:39;6.07;;;3.78;;
3613;SDS011;1821;50.936;6.854;2023-07-20T02:52:21;7.72;;;3.88;;
3613;SDS011;1821;50.936;6.854;2023-07-20T02:53:03;6.68;;;3.60;;
3613;SDS011;1821;50.936;6.854;2023-07-20T02:53:45;5.72;;;3.90;;
3613;SDS011;1821;50.936;6.854;2023-07-20T02:54:28;9.60;;;4.28;;
3613;SDS011;1821;50.936;6.854;2023-07-20T02:55:11;7.72;;;4.60;;
3613;SDS011;1821;50.936;6.854;2023-07-20T02:55:53;6.30;;;4.13;;
3613;SDS011;1821;50.936;6.854;2023-07-20T02:56:37;5.43;;;3.83;;
3613;SDS011;1821;50.936;6.854;2023-07-20T02:57:19;6.47;;;3.80;;
3613;SDS011;1821;50.936;6.854;2023-07-20T02:58:02;7.78;;;3.70;;
3613;SDS011;1821;50.936;6.854;2023-07-20T02:58:44;7.53;;;4.05;;
3613;SDS011;1821;50.936;6.854;2023-07-20T02:59:27;9.27;;;4.00;;
3613;SDS011;1821;50.936;6.854;2023-07-20T03:00:10;7.60;;;3.85;;
3613;SDS011;1821;50.936;6.854;2023-07-20T03:00:56;6.75;;;3.58;;
3613;SDS011;1821;50.936;6.854;2023-07-20T03:01:38;5.20;;;3.60;;
3613;SDS011;1821;50.936;6.854;2023-07-20T03:02:20;7.75;;;4.20;;
3613;SDS011;1821;50.936;6.854;2023-07-20T03:03:02;8.32;;;4.10;;
3613;SDS011;1821;50.936;6.854;2023-07-20T03:03:44;5.97;;;3.72;;
3613;SDS011;1821;50.936;6.854;2023-07-20T03:04:29;6.80;;;4.50;;
3613;SDS011;1821;50.936;6.854;2023-07-20T03:05:11;7.20;;;4.10;;
3613;SDS011;1821;50.936;6.854;2023-07-20T03:05:52;7.07;;;3.88;;
3613;SDS011;1821;50.936;6.854;2023-07-20T03:06:37;7.50;;;4.03;;
3613;SDS011;1821;50.936;6.854;2023-07-20T03:07:19;7.07;;;3.58;;
3613;SDS011;1821;50.936;6.854;2023-07-20T03:08:03;8.10;;;3.80;;
3613;SDS011;1821;50.936;6.854;2023-07-20T03:08:47;6.47;;;3.85;;
3613;SDS011;1821;50.936;6.854;2023-07-20T03:09:34;6.80;;;4.10;;
3613;SDS011;1821;50.936;6.854;2023-07-20T03:10:16;5.40;;;3.80;;
3613;SDS011;1821;50.936;6.854;2023-07-20T03:10:58;4.80;;;3.58;;
3613;SDS011;1821;50.936;6.854;2023-07-20T03:11:40;4.40;;;3.50;;
3613;SDS011;1821;50.936;6.854;2023-07-20T03:12:22;5.38;;;3.80;;
3613;SDS011;1821;50.936;6.854;2023-07-20T03:13:07;5.97;;;3.80;;
3613;SDS011;1821;50.936;6.854;2023-07-20T03:13:49;6.00;;;3.70;;
3613;SDS011;1821;50.936;6.854;2023-07-20T03:14:32;6.40;;;4.10;;
3613;SDS011;1821;50.936;6.854;2023-07-20T03:15:14;5.57;;;4.20;;
3613;SDS011;1821;50.936;6.854;2023-07-20T03:15:58;5.00;;;3.50;;
3613;SDS011;1821;50.936;6.854;2023-07-20T03:16:40;7.28;;;3.97;;
3613;SDS011;1821;50.936;6.854;2023-07-20T03:17:25;8.27;;;3.90;;
3613;SDS011;1821;50.936;6.854;2023-07-20T03:18:07;6.80;;;3.83;;
3613;SDS011;1821;50.936;6.854;2023-07-20T03:18:49;5.78;;;3.80;;
3613;SDS011;1821;50.936;6.854;2023-07-20T03:19:31;6.25;;;3.60;;
3613;SDS011;1821;50.936;6.854;2023-07-20T03:20:13;6.10;;;3.30;;
3613;SDS011;1821;50.936;6.854;2023-07-20T03:20:55;6.40;;;3.83;;
3613;SDS011;1821;50.936;6.854;2023-07-20T03:21:37;6.40;;;3.92;;
3613;SDS011;1821;50.936;6.854;2023-07-20T03:22:22;4.68;;;3.50;;
3613;SDS011;1821;50.936;6.854;2023-07-20T03:23:05;5.57;;;3.70;;
3613;SDS011;1821;50.936;6.854;2023-07-20T03:23:49;8.20;;;4.28;;
3613;SDS011;1821;50.936;6.854;2023-07-20T03:24:31;9.27;;;4.10;;
3613;SDS011;1821;50.936;6.854;2023-07-20T03:25:14;7.15;;;3.60;;
3613;SDS011;1821;50.936;6.854;2023-07-20T03:25:58;6.50;;;3.50;;
3613;SDS011;1821;50.936;6.854;2023-07-20T03:26:40;5.95;;;4.10;;
3613;SDS011;1821;50.936;6.854;2023-07-20T03:27:25;8.85;;;4.30;;
3613;SDS011;1821;50.936;6.854;2023-07-20T03:28:07;7.22;;;3.80;;
3613;SDS011;1821;50.936;6.854;2023-07-20T03:28:49;6.13;;;3.42;;
3613;SDS011;1821;50.936;6.854;2023-07-20T03:29:33;5.90;;;3.70;;
3613;SDS011;1821;50.936;6.854;2023-07-20T03:30:15;4.97;;;3.50;;
3613;SDS011;1821;50.936;6.854;2023-07-20T03:30:58;5.30;;;3.83;;
3613;SDS011;1821;50.936;6.854;2023-07-20T03:31:40;6.20;;;3.60;;
3613;SDS011;1821;50.936;6.854;2023-07-20T03:32:22;7.57;;;3.80;;
3613;SDS011;1821;50.936;6.854;2023-07-20T03:33:04;8.30;;;4.10;;
3613;SDS011;1821;50.936;6.854;2023-07-20T03:33:46;5.00;;;3.20;;
3613;SDS011;1821;50.936;6.854;2023-07-20T03:34:28;6.50;;;3.72;;
3613;SDS011;1821;50.936;6.854;2023-07-20T03:35:10;6.20;;;3.60;;
3613;SDS011;1821;50.936;6.854;2023-07-20T03:35:52;5.38;;;3.20;;
3613;SDS011;1821;50.936;6.854;2023-07-20T03:36:34;7.40;;;3.95;;
3613;SDS011;1821;50.936;6.854;2023-07-20T03:37:18;6.95;;;3.55;;
3613;SDS011;1821;50.936;6.854;2023-07-20T03:37:59;5.80;;;3.60;;
3613;SDS011;1821;50.936;6.854;2023-07-20T03:38:43;8.27;;;4.20;;
3613;SDS011;1821;50.936;6.854;2023-07-20T03:39:25;8.25;;;3.47;;
3613;SDS011;1821;50.936;6.854;2023-07-20T03:40:08;6.18;;;3.40;;
3613;SDS011;1821;50.936;6.854;2023-07-20T03:40:54;5.50;;;3.50;;
3613;SDS011;1821;50.936;6.854;2023-07-20T03:41:40;6.57;;;3.85;;
3613;SDS011;1821;50.936;6.854;2023-07-20T03:42:23;6.40;;;3.78;;
3613;SDS011;1821;50.936;6.854;2023-07-20T03:43:05;6.78;;;3.70;;
3613;SDS011;1821;50.936;6.854;2023-07-20T03:43:50;6.70;;;3.50;;
3613;SDS011;1821;50.936;6.854;2023-07-20T03:44:32;8.95;;;3.72;;
3613;SDS011;1821;50.936;6.854;2023-07-20T03:45:14;8.30;;;3.70;;
3613;SDS011;1821;50.936;6.854;2023-07-20T03:45:56;5.40;;;3.67;;
3613;SDS011;1821;50.936;6.854;2023-07-20T03:46:38;6.55;;;4.15;;
3613;SDS011;1821;50.936;6.854;2023-07-20T03:47:20;5.32;;;3.40;;
3613;SDS011;1821;50.936;6.854;2023-07-20T03:48:05;5.50;;;3.60;;
3613;SDS011;1821;50.936;6.854;2023-07-20T03:48:47;5.47;;;3.13;;
3613;SDS011;1821;50.936;6.854;2023-07-20T03:49:29;6.35;;;3.33;;
3613;SDS011;1821;50.936;6.854;2023-07-20T03:50:11;9.18;;;3.88;;
3613;SDS011;1821;50.936;6.854;2023-07-20T03:50:53;6.53;;;3.10;;
3613;SDS011;1821;50.936;6.854;2023-07-20T03:51:36;5.45;;;3.00;;
3613;SDS011;1821;50.936;6.854;2023-07-20T03:52:20;5.97;;;3.60;;
3613;SDS011;1821;50.936;6.854;2023-07-20T03:53:02;6.45;;;3.78;;
3613;SDS011;1821;50.936;6.854;2023-07-20T03:53:47;5.40;;;3.20;;
3613;SDS011;1821;50.936;6.854;2023-07-20T03:54:29;6.05;;;3.10;;
3613;SDS011;1821;50.936;6.854;2023-07-20T03:55:11;5.72;;;3.47;;
3613;SDS011;1821;50.936;6.854;2023-07-20T03:55:53;6.38;;;3.80;;
3613;SDS011;1821;50.936;6.854;2023-07-20T03:56:36;8.00;;;3.60;;
3613;SDS011;1821;50.936;6.854;2023-07-20T03:57:20;6.38;;;3.10;;
3613;SDS011;1821;50.936;6.854;2023-07-20T03:58:02;5.50;;;3.35;;
3613;SDS011;1821;50.936;6.854;2023-07-20T03:58:45;5.40;;;3.30;;
3613;SDS011;1821;50.936;6.854;2023-07-20T03:59:27;7.60;;;3.40;;
3613;SDS011;1821;50.936;6.854;2023-07-20T04:00:09;6.82;;;3.47;;
3613;SDS011;1821;50.936;6.854;2023-07-20T04:00:53;5.53;;;3.38;;
3613;SDS011;1821;50.936;6.854;2023-07-20T04:01:35;6.72;;;3.58;;
3613;SDS011;1821;50.936;6.854;2023-07-20T04:02:18;8.40;;;4.50;;
3613;SDS011;1821;50.936;6.854;2023-07-20T04:03:00;7.28;;;4.30;;
3613;SDS011;1821;50.936;6.854;2023-07-20T04:03:43;6.25;;;3.70;;
3613;SDS011;1821;50.936;6.854;2023-07-20T04:04:29;4.95;;;3.50;;
3613;SDS011;1821;50.936;6.854;2023-07-20T04:05:13;9.82;;;3.58;;
3613;SDS011;1821;50.936;6.854;2023-07-20T04:05:55;7.57;;;3.88;;
3613;SDS011;1821;50.936;6.854;2023-07-20T04:06:37;6.47;;;3.90;;
3613;SDS011;1821;50.936;6.854;2023-07-20T04:07:19;6.88;;;3.55;;
3613;SDS011;1821;50.936;6.854;2023-07-20T04:08:03;6.30;;;2.97;;
3613;SDS011;1821;50.936;6.854;2023-07-20T04:08:45;8.10;;;3.25;;
3613;SDS011;1821;50.936;6.854;2023-07-20T04:09:33;6.25;;;3.50;;
3613;SDS011;1821;50.936;6.854;2023-07-20T04:10:15;6.25;;;3.58;;
3613;SDS011;1821;50.936;6.854;2023-07-20T04:10:58;6.30;;;3.60;;
3613;SDS011;1821;50.936;6.854;2023-07-20T04:11:46;5.25;;;3.22;;
3613;SDS011;1821;50.936;6.854;2023-07-20T04:12:30;5.78;;;3.60;;
3613;SDS011;1821;50.936;6.854;2023-07-20T04:13:12;5.65;;;3.70;;
3613;SDS011;1821;50.936;6.854;2023-07-20T04:13:54;7.10;;;3.90;;
3613;SDS011;1821;50.936;6.854;2023-07-20T04:14:37;5.35;;;3.40;;
3613;SDS011;1821;50.936;6.854;2023-07-20T04:15:19;8.45;;;3.40;;
3613;SDS011;1821;50.936;6.854;2023-07-20T04:16:03;11.10;;;3.30;;
3613;SDS011;1821;50.936;6.854;2023-07-20T04:16:48;6.43;;;3.60;;
3613;SDS011;1821;50.936;6.854;2023-07-20T04:17:30;7.97;;;3.70;;
3613;SDS011;1821;50.936;6.854;2023-07-20T04:18:11;6.38;;;3.65;;
3613;SDS011;1821;50.936;6.854;2023-07-20T04:18:55;5.93;;;3.30;;
3613;SDS011;1821;50.936;6.854;2023-07-20T04:19:37;7.30;;;3.70;;
3613;SDS011;1821;50.936;6.854;2023-07-20T04:20:19;7.35;;;3.40;;
3613;SDS011;1821;50.936;6.854;2023-07-20T04:21:01;7.63;;;3.53;;
3613;SDS011;1821;50.936;6.854;2023-07-20T04:21:45;4.70;;;3.05;;
3613;SDS011;1821;50.936;6.854;2023-07-20T04:22:28;5.47;;;3.00;;
3613;SDS011;1821;50.936;6.854;2023-07-20T04:23:10;7.47;;;3.38;;
3613;SDS011;1821;50.936;6.854;2023-07-20T04:23:52;5.72;;;3.80;;
3613;SDS011;1821;50.936;6.854;2023-07-20T04:24:35;6.00;;;3.55;;
3613;SDS011;1821;50.936;6.854;2023-07-20T04:25:19;4.97;;;3.25;;
3613;SDS011;1821;50.936;6.854;2023-07-20T04:26:03;6.18;;;3.35;;
3613;SDS011;1821;50.936;6.854;2023-07-20T04:26:45;6.88;;;3.78;;
3613;SDS011;1821;50.936;6.854;2023-07-20T04:27:30;7.10;;;3.55;;
3613;SDS011;1821;50.936;6.854;2023-07-20T04:28:12;5.72;;;3.20;;
3613;SDS011;1821;50.936;6.854;2023-07-20T04:28:54;6.25;;;3.35;;
3613;SDS011;1821;50.936;6.854;2023-07-20T04:29:38;5.63;;;3.55;;
3613;SDS011;1821;50.936;6.854;2023-07-20T04:30:20;7.90;;;3.83;;
3613;SDS011;1821;50.936;6.854;2023-07-20T04:31:13;7.20;;;3.35;;
3613;SDS011;1821;50.936;6.854;2023-07-20T04:31:56;5.15;;;2.70;;
3613;SDS011;1821;50.936;6.854;2023-07-20T04:32:40;6.30;;;3.72;;
3613;SDS011;1821;50.936;6.854;2023-07-20T04:33:25;9.17;;;3.20;;
3613;SDS011;1821;50.936;6.854;2023-07-20T04:34:10;9.35;;;3.00;;
3613;SDS011;1821;50.936;6.854;2023-07-20T04:34:52;6.40;;;3.35;;
3613;SDS011;1821;50.936;6.854;2023-07-20T04:35:53;5.70;;;3.65;;
3613;SDS011;1821;50.936;6.854;2023-07-20T04:36:36;8.10;;;3.50;;
3613;SDS011;1821;50.936;6.854;2023-07-20T04:37:18;8.50;;;3.65;;
3613;SDS011;1821;50.936;6.854;2023-07-20T04:38:00;5.93;;;3.40;;